Time;durP1;ratioP1;P1;durP2;ratioP2;P2;SDS_P1;SDS_P2;PMS_P1;PMS_P2;Temp;Humidity;BMP_temperature;BMP_pressure;BME280_temperature;BME280_humidity;BME280_pressure;Samples;Min_cycle;Max_cycle;Signal;HPM_P1;HPM_P2
2022/07/19 00:00:13;;;;;;;2.60;1.83;;;;;;;22.03;67.80;100081.81;5135885;27;20684;-66
2022/07/19 00:02:42;;;;;;;1.00;1.00;;;;;;;22.01;67.55;100084.50;5132859;27;20239;-66
2022/07/19 00:05:11;;;;;;;1.57;1.20;;;;;;;22.01;67.85;100083.66;5122187;27;20217;-66
2022/07/19 00:07:38;;;;;;;0.93;0.93;;;;;;;22.09;67.73;100084.00;5130735;27;20251;-66
2022/07/19 00:10:07;;;;;;;1.10;1.00;;;;;;;22.09;67.30;100086.63;5136626;27;20224;-66
2022/07/19 00:12:34;;;;;;;1.40;1.40;;;;;;;22.10;67.40;100083.09;5121185;27;20582;-66
2022/07/19 00:15:01;;;;;;;1.20;1.20;;;;;;;22.21;66.94;100083.19;5117800;27;20205;-66
2022/07/19 00:17:28;;;;;;;0.93;0.93;;;;;;;22.13;67.13;100082.88;5129315;27;20201;-66
2022/07/19 00:19:56;;;;;;;7.83;1.03;;;;;;;22.06;67.11;100084.22;5124938;27;20596;-66
2022/07/19 00:22:22;;;;;;;1.73;1.10;;;;;;;22.04;67.39;100078.22;5137778;27;20201;-66
2022/07/19 00:24:49;;;;;;;1.30;1.30;;;;;;;21.95;67.74;100083.16;5122261;27;20203;-66
2022/07/19 00:27:16;;;;;;;2.83;1.10;;;;;;;21.87;67.36;100082.75;5123099;27;20207;-66
2022/07/19 00:29:43;;;;;;;1.53;1.10;;;;;;;21.75;68.08;100090.56;5121206;27;20228;-65
2022/07/19 00:32:10;;;;;;;1.63;1.53;;;;;;;21.52;68.44;100080.81;5131048;27;20202;-66
2022/07/19 00:34:36;;;;;;;1.10;1.10;;;;;;;21.54;68.62;100086.75;5123628;27;20203;-66
2022/07/19 00:37:05;;;;;;;1.03;1.03;;;;;;;21.59;68.67;100087.28;5134232;27;20205;-66
2022/07/19 00:39:31;;;;;;;0.73;0.73;;;;;;;21.48;69.12;100080.16;5125329;27;20758;-66
2022/07/19 00:41:58;;;;;;;1.10;1.10;;;;;;;21.40;69.38;100067.59;5125237;27;20213;-65
2022/07/19 00:44:25;;;;;;;1.60;1.30;;;;;;;21.45;69.36;100081.16;5123685;27;20673;-66
2022/07/19 00:46:52;;;;;;;0.80;0.80;;;;;;;21.45;69.68;100080.34;5131874;27;20197;-66
2022/07/19 00:49:19;;;;;;;0.90;0.87;;;;;;;21.41;69.33;100079.72;5127531;27;20217;-65
2022/07/19 00:51:47;;;;;;;1.50;1.10;;;;;;;21.32;69.40;100069.88;5125397;27;20289;-66
2022/07/19 00:54:17;;;;;;;1.07;1.07;;;;;;;21.32;69.55;100074.25;5124101;27;20200;-66
2022/07/19 00:56:48;;;;;;;3.33;1.10;;;;;;;21.36;69.23;100076.53;5130387;27;20265;-66
2022/07/19 00:59:15;;;;;;;1.20;1.20;;;;;;;21.38;69.23;100079.06;5120631;27;20687;-66
2022/07/19 01:01:42;;;;;;;1.10;1.10;;;;;;;21.38;69.44;100079.06;5134625;27;20661;-66
2022/07/19 01:04:11;;;;;;;1.00;1.00;;;;;;;21.39;69.35;100078.13;5123174;27;20206;-66
2022/07/19 01:06:38;;;;;;;1.83;0.90;;;;;;;21.46;68.90;100079.41;5133981;27;20649;-66
2022/07/19 01:09:05;;;;;;;1.20;1.20;;;;;;;21.50;68.52;100083.50;5128684;27;20272;-66
2022/07/19 01:11:34;;;;;;;1.00;1.00;;;;;;;21.54;68.31;100076.31;5121639;27;20201;-65
2022/07/19 01:14:00;;;;;;;1.20;1.10;;;;;;;21.53;68.31;100082.47;5125152;27;20728;-65
2022/07/19 01:16:27;;;;;;;1.40;1.10;;;;;;;21.62;68.84;100081.84;5124131;27;20197;-66
2022/07/19 01:18:54;;;;;;;1.20;1.20;;;;;;;21.65;69.18;100079.88;5116755;27;20197;-66
2022/07/19 01:21:23;;;;;;;1.37;1.37;;;;;;;21.67;69.22;100078.03;5124827;27;20689;-65
2022/07/19 01:23:51;;;;;;;4.33;1.60;;;;;;;21.70;68.76;100069.16;5131625;27;20194;-66
2022/07/19 01:26:18;;;;;;;3.80;1.50;;;;;;;21.57;68.89;100047.41;5124495;27;20207;-66
2022/07/19 01:28:46;;;;;;;1.47;1.37;;;;;;;21.75;69.18;100072.28;5122961;27;20216;-65
2022/07/19 01:31:13;;;;;;;1.43;1.33;;;;;;;21.75;68.80;100073.13;5116172;27;20210;-66
2022/07/19 01:33:41;;;;;;;1.40;1.40;;;;;;;21.75;68.19;100067.91;5127237;27;20207;-66
2022/07/19 01:36:08;;;;;;;1.33;1.33;;;;;;;21.74;68.19;100066.25;5121212;27;20907;-66
2022/07/19 01:38:36;;;;;;;1.13;1.13;;;;;;;21.60;68.36;100058.50;5114448;27;20204;-66
2022/07/19 01:41:03;;;;;;;1.57;1.57;;;;;;;21.63;68.28;100073.94;5114640;27;20198;-66
2022/07/19 01:43:30;;;;;;;0.90;0.90;;;;;;;21.58;68.51;100076.03;5116646;27;20216;-66
2022/07/19 01:45:57;;;;;;;1.80;1.70;;;;;;;21.52;68.78;100073.78;5123796;27;20201;-66
2022/07/19 01:48:25;;;;;;;1.83;1.73;;;;;;;21.43;69.47;100066.56;5126887;27;20212;-66
2022/07/19 01:50:52;;;;;;;1.90;1.20;;;;;;;21.44;69.16;100070.84;5122839;27;20225;-66
2022/07/19 01:53:19;;;;;;;1.00;1.00;;;;;;;21.41;69.28;100076.25;5121822;27;20243;-66
2022/07/19 01:55:47;;;;;;;1.33;1.23;;;;;;;21.40;69.17;100071.97;5118544;27;20201;-66
2022/07/19 01:58:14;;;;;;;1.27;1.27;;;;;;;21.39;69.10;100080.72;5124644;27;20265;-66
2022/07/19 02:00:41;;;;;;;1.20;1.20;;;;;;;21.38;69.15;100079.06;5133156;27;20199;-65
2022/07/19 02:03:08;;;;;;;2.17;1.13;;;;;;;21.28;69.43;100081.44;5127490;27;20718;-66
2022/07/19 02:05:35;;;;;;;1.03;1.03;;;;;;;21.19;69.70;100083.78;5122488;27;20208;-66
2022/07/19 02:08:03;;;;;;;1.20;1.20;;;;;;;21.12;70.11;100072.06;5118319;27;20279;-65
2022/07/19 02:10:30;;;;;;;1.57;0.80;;;;;;;21.08;70.24;100073.13;5124619;27;20207;-66
2022/07/19 02:12:58;;;;;;;1.37;1.27;;;;;;;21.05;70.63;100075.94;5122041;27;20659;-66
2022/07/19 02:15:25;;;;;;;1.33;1.23;;;;;;;21.00;70.46;100078.84;5128919;27;20253;-65
2022/07/19 02:17:52;;;;;;;1.43;1.43;;;;;;;21.00;70.51;100084.06;5121755;27;20202;-66
2022/07/19 02:20:19;;;;;;;2.43;1.20;;;;;;;20.92;71.13;100087.13;5123521;27;20245;-66
2022/07/19 02:22:46;;;;;;;1.40;1.40;;;;;;;20.86;71.68;100086.69;5124125;27;20197;-65
2022/07/19 02:25:13;;;;;;;1.60;1.60;;;;;;;20.82;71.95;100086.03;5118680;27;20207;-66
2022/07/19 02:27:40;;;;;;;1.13;1.13;;;;;;;20.78;72.30;100081.91;5121362;27;20224;-65
2022/07/19 02:30:11;;;;;;;6.40;1.40;;;;;;;20.76;72.63;100085.56;5124665;27;20229;-65
2022/07/19 02:32:38;;;;;;;4.47;1.30;;;;;;;20.73;73.00;100081.38;5117939;27;20206;-66
2022/07/19 02:35:06;;;;;;;1.60;1.50;;;;;;;20.66;73.43;100080.06;5126675;27;20605;-66
2022/07/19 02:37:33;;;;;;;3.90;1.47;;;;;;;20.63;74.03;100082.03;5123754;27;20205;-65
2022/07/19 02:39:59;;;;;;;1.93;1.30;;;;;;;20.60;74.08;100090.88;5121062;27;20196;-66
2022/07/19 02:42:26;;;;;;;1.00;1.00;;;;;;;20.59;74.22;100078.75;5121128;27;20207;-65
2022/07/19 02:44:53;;;;;;;1.60;1.60;;;;;;;20.53;74.59;100073.94;5125711;27;20211;-66
2022/07/19 02:47:21;;;;;;;1.50;1.50;;;;;;;20.50;74.66;100076.72;5115485;27;20560;-65
2022/07/19 02:49:48;;;;;;;1.20;1.20;;;;;;;20.48;75.02;100068.16;5130649;27;20212;-65
2022/07/19 02:52:15;;;;;;;1.33;1.33;;;;;;;20.49;75.48;100068.97;5132681;27;20721;-66
2022/07/19 02:54:42;;;;;;;1.37;1.33;;;;;;;20.50;75.83;100068.06;5132030;27;20194;-65
2022/07/19 02:57:09;;;;;;;2.10;1.50;;;;;;;20.48;75.61;100068.16;5115599;27;20668;-65
2022/07/19 02:59:35;;;;;;;1.13;1.13;;;;;;;20.46;75.75;100071.78;5118664;27;20193;-66
2022/07/19 03:02:02;;;;;;;2.20;1.33;;;;;;;20.43;76.57;100067.59;5123979;27;20196;-65
2022/07/19 03:04:30;;;;;;;1.50;1.40;;;;;;;20.49;76.78;100076.78;5117237;27;20197;-65
2022/07/19 03:06:58;;;;;;;3.63;1.30;;;;;;;20.47;77.17;100074.28;5126678;27;20210;-66
2022/07/19 03:09:24;;;;;;;3.47;1.37;;;;;;;20.46;76.68;100077.81;5127847;27;20216;-66
2022/07/19 03:11:51;;;;;;;1.30;1.30;;;;;;;20.48;76.84;100070.78;5131771;27;20207;-65
2022/07/19 03:14:18;;;;;;;1.30;1.30;;;;;;;20.47;76.67;100078.66;5122757;27;20207;-65
2022/07/19 03:16:45;;;;;;;2.63;1.60;;;;;;;20.43;77.15;100080.59;5127224;27;20617;-65
2022/07/19 03:19:12;;;;;;;1.40;1.30;;;;;;;20.36;76.68;100068.88;5130811;27;20202;-65
2022/07/19 03:21:40;;;;;;;2.10;1.50;;;;;;;20.30;75.82;100062.28;5131351;27;20194;-65
2022/07/19 03:24:07;;;;;;;1.67;1.00;;;;;;;20.34;75.91;100088.97;5130661;27;20269;-66
2022/07/19 03:26:34;;;;;;;2.10;2.00;;;;;;;20.29;76.15;100088.44;5125746;27;20256;-66
2022/07/19 03:29:01;;;;;;;1.77;1.67;;;;;;;20.23;76.67;100088.72;5119909;27;20576;-65
2022/07/19 03:31:27;;;;;;;1.40;1.40;;;;;;;20.23;77.10;100086.13;5128866;27;20210;-66
2022/07/19 03:33:54;;;;;;;1.53;1.50;;;;;;;20.25;76.99;100090.34;5117975;27;20594;-65
2022/07/19 03:36:21;;;;;;;6.93;2.70;;;;;;;20.25;77.66;100087.72;5126818;27;20655;-65
2022/07/19 03:38:49;;;;;;;3.60;2.30;;;;;;;20.26;78.21;100086.81;5127100;27;20195;-66
2022/07/19 03:41:16;;;;;;;2.03;1.93;;;;;;;20.32;78.56;100090.84;5121395;27;20200;-66
2022/07/19 03:43:43;;;;;;;2.20;2.10;;;;;;;20.39;78.09;100089.53;5121104;27;20202;-66
2022/07/19 03:46:10;;;;;;;1.87;1.77;;;;;;;20.46;77.81;100087.41;5117890;27;20689;-66
2022/07/19 03:48:36;;;;;;;1.80;1.70;;;;;;;20.54;76.85;100091.25;5129645;27;20207;-66
2022/07/19 03:51:03;;;;;;;3.00;2.80;;;;;;;20.58;76.81;100081.47;5130373;28;20697;-66
2022/07/19 03:53:30;;;;;;;1.97;1.83;;;;;;;20.75;76.51;100095.13;5116925;28;20217;-65
2022/07/19 03:55:58;;;;;;;1.60;1.60;;;;;;;20.87;76.76;100097.00;5131199;28;20192;-65
2022/07/19 03:58:25;;;;;;;2.70;2.30;;;;;;;20.99;76.70;100103.22;5116907;28;20195;-65
2022/07/19 04:00:53;;;;;;;5.33;1.93;;;;;;;21.12;76.82;100104.19;5115650;28;20197;-65
2022/07/19 04:03:20;;;;;;;3.77;2.13;;;;;;;21.20;76.99;100091.50;5120525;28;20220;-66
2022/07/19 04:05:46;;;;;;;4.63;2.33;;;;;;;21.41;76.14;100105.81;5123381;28;20276;-66
2022/07/19 04:08:14;;;;;;;1.87;1.77;;;;;;;21.58;75.71;100111.72;5119403;28;20206;-66
2022/07/19 04:10:41;;;;;;;1.97;1.90;;;;;;;21.71;74.50;100110.81;5131123;28;20267;-65
2022/07/19 04:13:09;;;;;;;2.30;2.20;;;;;;;21.77;74.84;100100.00;5124641;28;20551;-66
2022/07/19 04:15:36;;;;;;;1.93;1.77;;;;;;;22.01;73.91;100117.59;5129756;28;20193;-66
2022/07/19 04:18:03;;;;;;;1.70;1.70;;;;;;;22.03;73.95;100107.91;5119655;28;20251;-66
2022/07/19 04:20:30;;;;;;;2.90;2.20;;;;;;;22.16;74.00;100104.41;5124827;28;20194;-66
2022/07/19 04:22:57;;;;;;;2.77;2.47;;;;;;;22.23;73.10;100105.63;5128422;27;20209;-66
2022/07/19 04:25:24;;;;;;;2.80;2.53;;;;;;;22.34;72.68;100107.53;5116615;27;20206;-66
2022/07/19 04:27:51;;;;;;;11.43;1.93;;;;;;;22.44;72.71;100113.81;5116452;28;20203;-66
2022/07/19 04:30:19;;;;;;;2.00;1.90;;;;;;;22.55;73.06;100100.88;5118166;28;20217;-66
2022/07/19 04:32:46;;;;;;;2.60;2.20;;;;;;;22.73;71.72;100110.09;5131027;28;20213;-66
2022/07/19 04:35:12;;;;;;;4.07;2.07;;;;;;;22.88;72.55;100118.63;5128937;27;20574;-66
2022/07/19 04:37:41;;;;;;;2.40;2.30;;;;;;;23.10;71.90;100107.53;5122135;27;20194;-66
2022/07/19 04:40:09;;;;;;;7.87;4.60;;;;;;;23.28;71.05;100114.91;5126157;27;20202;-65
2022/07/19 04:42:36;;;;;;;2.70;2.43;;;;;;;23.50;70.74;100109.00;5128207;27;20735;-66
2022/07/19 04:45:04;;;;;;;9.00;3.83;;;;;;;23.71;67.30;100114.47;5125582;27;20230;-66
2022/07/19 04:47:32;;;;;;;4.03;2.20;;;;;;;23.75;68.15;100111.50;5124786;27;20202;-66
2022/07/19 04:49:59;;;;;;;4.17;1.90;;;;;;;23.88;69.00;100117.50;5132623;27;20221;-66
2022/07/19 04:52:26;;;;;;;3.13;2.00;;;;;;;24.03;66.33;100115.56;5130250;27;20237;-66
2022/07/19 04:54:52;;;;;;;1.70;1.60;;;;;;;24.18;66.28;100108.34;5130869;27;20590;-66
2022/07/19 04:57:19;;;;;;;2.30;1.57;;;;;;;24.28;65.95;100101.47;5133618;27;20577;-67
2022/07/19 04:59:47;;;;;;;1.50;1.40;;;;;;;24.55;65.70;100118.59;5123647;27;20205;-67
2022/07/19 05:02:14;;;;;;;1.30;1.30;;;;;;;24.77;65.19;100115.13;5122808;27;20274;-67
2022/07/19 05:04:42;;;;;;;2.67;1.80;;;;;;;24.97;63.92;100119.69;5123489;27;20201;-67
2022/07/19 05:07:09;;;;;;;1.70;1.23;;;;;;;25.18;63.83;100121.56;5113784;28;20202;-67
2022/07/19 05:09:35;;;;;;;1.37;1.30;;;;;;;25.32;60.53;100130.03;5124371;27;20198;-67
2022/07/19 05:12:05;;;;;;;2.77;1.50;;;;;;;25.43;60.34;100122.13;5127938;27;20679;-66
2022/07/19 05:14:32;;;;;;;2.33;1.23;;;;;;;25.51;61.19;100124.19;5128905;27;20250;-67
2022/07/19 05:16:59;;;;;;;1.63;1.27;;;;;;;25.49;61.98;100124.28;5122658;27;20198;-67
2022/07/19 05:19:26;;;;;;;1.20;1.20;;;;;;;25.67;61.67;100123.75;5127251;27;20213;-67
2022/07/19 05:21:54;;;;;;;0.90;0.90;;;;;;;25.87;59.82;100126.44;5127499;27;20293;-67
2022/07/19 05:24:21;;;;;;;1.40;1.30;;;;;;;25.93;59.67;100120.69;5117302;27;20205;-67
2022/07/19 05:26:48;;;;;;;1.30;1.20;;;;;;;25.98;57.19;100113.25;5125168;27;20202;-66
2022/07/19 05:29:15;;;;;;;1.03;1.00;;;;;;;26.18;58.15;100121.31;5132370;27;20251;-67
2022/07/19 05:31:42;;;;;;;1.73;1.00;;;;;;;26.36;57.74;100111.91;5121699;27;20927;-67
2022/07/19 05:34:08;;;;;;;1.13;1.13;;;;;;;26.59;55.02;100118.69;5132091;27;20572;-67
2022/07/19 05:36:35;;;;;;;0.80;0.80;;;;;;;26.76;54.45;100125.09;5128154;27;20213;-67
2022/07/19 05:39:04;;;;;;;0.90;0.90;;;;;;;27.00;54.13;100123.88;5123832;27;20665;-66
2022/07/19 05:41:31;;;;;;;2.43;1.03;;;;;;;27.12;53.50;100128.06;5120214;27;20209;-67
2022/07/19 05:43:59;;;;;;;1.67;0.97;;;;;;;27.32;51.64;100128.13;5128070;27;20190;-67
2022/07/19 05:46:26;;;;;;;0.80;0.80;;;;;;;27.53;52.94;100127.06;5117532;27;20217;-67
2022/07/19 05:48:52;;;;;;;3.43;0.93;;;;;;;27.81;53.45;100122.81;5125149;27;20203;-67
2022/07/19 05:51:19;;;;;;;1.30;1.03;;;;;;;27.93;51.04;100134.03;5128439;27;20230;-66
2022/07/19 05:53:47;;;;;;;1.07;0.83;;;;;;;27.83;50.48;100128.78;5125913;27;20206;-67
2022/07/19 05:56:15;;;;;;;1.10;1.00;;;;;;;28.03;51.52;100134.88;5127454;27;20202;-68
2022/07/19 05:58:43;;;;;;;2.00;1.20;;;;;;;28.25;51.23;100124.06;5126823;27;20205;-68
2022/07/19 06:01:19;;;;;;;0.90;0.90;;;;;;;28.38;51.25;100126.41;5126892;27;20635;-66
2022/07/19 06:03:47;;;;;;;6.57;1.67;;;;;;;28.59;49.49;100127.06;5127392;27;20278;-67
2022/07/19 06:06:15;;;;;;;1.13;1.13;;;;;;;28.82;50.94;100122.28;5122662;27;20202;-67
2022/07/19 06:08:42;;;;;;;3.20;1.33;;;;;;;28.95;49.64;100123.59;5128397;27;20274;-67
2022/07/19 06:11:09;;;;;;;1.77;1.00;;;;;;;29.10;50.84;100124.78;5120885;27;20240;-68
2022/07/19 06:13:37;;;;;;;1.63;1.00;;;;;;;29.24;49.74;100134.03;5129318;27;20203;-65
2022/07/19 06:16:05;;;;;;;5.68;1.35;;;;;;;29.44;48.48;100132.97;5129702;27;20198;-68
2022/07/19 06:18:34;;;;;;;0.70;0.70;;;;;;;29.53;45.64;100128.63;5127621;27;20198;-68
2022/07/19 06:21:01;;;;;;;1.52;1.10;;;;;;;29.64;47.81;100131.03;5124935;27;20205;-69
2022/07/19 06:23:28;;;;;;;0.85;0.85;;;;;;;29.80;48.88;100128.53;5123008;27;20198;-69
2022/07/19 06:25:55;;;;;;;1.05;1.00;;;;;;;29.95;46.34;100134.97;5121655;27;20331;-69
2022/07/19 06:28:21;;;;;;;11.38;1.35;;;;;;;30.11;46.02;100131.66;5131457;27;20206;-69
2022/07/19 06:30:49;;;;;;;1.05;0.95;;;;;;;30.24;45.57;100125.97;5132736;27;20214;-70
2022/07/19 06:33:16;;;;;;;1.00;1.00;;;;;;;30.40;44.79;100126.94;5132098;27;20217;-69
2022/07/19 06:35:43;;;;;;;1.52;1.10;;;;;;;30.61;44.60;100131.84;5130953;27;20206;-67
2022/07/19 06:38:10;;;;;;;1.55;1.05;;;;;;;30.68;43.05;100111.72;5131920;27;20206;-67
2022/07/19 06:40:37;;;;;;;1.10;1.10;;;;;;;30.83;44.46;100126.00;5132048;27;20566;-66
2022/07/19 06:43:03;;;;;;;1.17;1.10;;;;;;;30.68;42.24;100122.31;5132192;27;20205;-66
2022/07/19 06:45:30;;;;;;;2.15;1.13;;;;;;;30.90;41.73;100120.91;5131962;27;20217;-71
2022/07/19 06:47:58;;;;;;;1.65;1.08;;;;;;;31.03;41.10;100122.19;5125019;27;20272;-70
2022/07/19 06:50:25;;;;;;;1.10;1.05;;;;;;;31.23;42.96;100117.44;5124523;27;20205;-68
2022/07/19 06:52:52;;;;;;;1.90;1.58;;;;;;;31.09;39.80;100113.59;5125735;27;20448;-62
2022/07/19 06:55:19;;;;;;;2.67;1.20;;;;;;;30.82;43.88;100100.53;5119222;27;20435;-62
2022/07/19 06:57:46;;;;;;;1.30;1.30;;;;;;;31.20;43.56;100107.16;5113259;27;20224;-62
2022/07/19 07:00:14;;;;;;;1.30;0.90;;;;;;;31.52;41.03;100117.88;5127222;27;20202;-62
2022/07/19 07:02:42;;;;;;;1.17;1.17;;;;;;;31.69;39.80;100114.28;5123470;27;20438;-68
2022/07/19 07:05:12;;;;;;;1.73;0.93;;;;;;;32.03;41.57;100105.31;5130760;27;20549;-68
2022/07/19 07:07:41;;;;;;;1.13;1.13;;;;;;;32.20;39.21;100107.00;5126610;27;20197;-67
2022/07/19 07:10:09;;;;;;;0.90;0.90;;;;;;;32.33;38.65;100093.22;5125333;27;20202;-68
2022/07/19 07:12:36;;;;;;;0.80;0.80;;;;;;;32.51;40.88;100107.94;5131520;27;20213;-74
2022/07/19 07:15:03;;;;;;;1.00;1.00;;;;;;;32.58;39.02;100110.75;5128064;27;20251;-67
2022/07/19 07:17:30;;;;;;;0.95;0.95;;;;;;;32.32;39.21;100113.63;5123442;27;20205;-69
2022/07/19 07:19:57;;;;;;;1.25;1.25;;;;;;;32.48;39.44;100105.63;5128944;27;20217;-69
2022/07/19 07:22:25;;;;;;;1.20;1.10;;;;;;;32.57;38.66;100112.59;5113573;27;20648;-69
2022/07/19 07:24:52;;;;;;;2.33;1.70;;;;;;;32.81;38.13;100110.88;5125724;27;20206;-69
2022/07/19 07:27:19;;;;;;;0.88;0.88;;;;;;;32.67;37.64;100109.75;5123635;27;20210;-66
2022/07/19 07:29:45;;;;;;;1.02;1.02;;;;;;;32.88;37.70;100110.00;5122005;27;20203;-67
2022/07/19 07:32:12;;;;;;;4.00;1.35;;;;;;;32.93;39.01;100107.66;5118973;27;20214;-67
2022/07/19 07:34:39;;;;;;;1.30;1.30;;;;;;;33.13;39.89;100106.28;5121758;27;20202;-65
2022/07/19 07:37:06;;;;;;;5.78;1.50;;;;;;;33.18;37.64;100108.41;5119829;27;20202;-66
2022/07/19 07:39:35;;;;;;;9.63;1.33;;;;;;;33.40;39.11;100109.47;5122695;27;20206;-66
2022/07/19 07:42:03;;;;;;;0.80;0.80;;;;;;;33.40;37.20;100101.47;5127307;27;20241;-65
2022/07/19 07:44:30;;;;;;;1.13;1.13;;;;;;;33.56;37.32;100112.84;5122090;27;20208;-66
2022/07/19 07:46:57;;;;;;;1.10;1.10;;;;;;;33.38;38.42;100098.19;5130670;27;20213;-66
2022/07/19 07:49:24;;;;;;;1.35;1.25;;;;;;;33.59;35.57;100106.34;5131006;27;20570;-66
2022/07/19 07:51:51;;;;;;;1.50;1.10;;;;;;;33.75;36.40;100100.94;5121324;27;20710;-66
2022/07/19 07:54:18;;;;;;;0.90;0.90;;;;;;;33.92;33.51;100107.78;5130066;28;20210;-67
2022/07/19 07:56:47;;;;;;;0.90;0.90;;;;;;;33.98;32.68;100100.91;5128333;28;20190;-67
2022/07/19 07:59:13;;;;;;;0.90;0.90;;;;;;;33.87;33.28;100104.81;5129274;28;20209;-67
2022/07/19 08:01:42;;;;;;;1.77;1.15;;;;;;;33.81;32.88;100094.06;5130924;27;20247;-65
2022/07/19 08:04:09;;;;;;;0.68;0.68;;;;;;;33.65;33.53;100089.69;5129841;28;20724;-66
2022/07/19 08:06:36;;;;;;;1.70;1.60;;;;;;;33.43;33.02;100090.50;5128199;28;20586;-64
2022/07/19 08:09:04;;;;;;;1.10;1.10;;;;;;;33.45;29.95;100089.31;5121311;28;20206;-65
2022/07/19 08:11:31;;;;;;;0.88;0.88;;;;;;;33.27;30.71;100091.41;5130416;27;20551;-65
2022/07/19 08:13:59;;;;;;;0.90;0.90;;;;;;;33.36;30.09;100097.50;5134135;27;20194;-64
2022/07/19 08:16:26;;;;;;;0.80;0.80;;;;;;;33.60;29.13;100092.03;5123749;27;20213;-65
2022/07/19 08:18:53;;;;;;;0.80;0.80;;;;;;;33.83;28.47;100095.53;5125006;27;20214;-67
2022/07/19 08:21:20;;;;;;;1.85;0.70;;;;;;;34.03;28.21;100088.72;5132124;27;20197;-67
2022/07/19 08:23:46;;;;;;;0.80;0.80;;;;;;;34.15;26.87;100089.16;5134860;27;20730;-66
2022/07/19 08:26:13;;;;;;;1.00;1.00;;;;;;;34.04;26.46;100090.38;5134466;27;20204;-66
2022/07/19 08:28:40;;;;;;;0.70;0.70;;;;;;;33.69;27.37;100085.69;5134593;27;20263;-66
2022/07/19 08:31:09;;;;;;;0.77;0.77;;;;;;;33.30;28.09;100079.59;5133664;27;20309;-67
2022/07/19 08:33:38;;;;;;;1.00;0.90;;;;;;;33.50;26.57;100080.81;5131778;27;20202;-65
2022/07/19 08:36:06;;;;;;;0.85;0.85;;;;;;;33.32;26.75;100080.25;5131073;27;20198;-68
2022/07/19 08:38:32;;;;;;;1.05;1.05;;;;;;;33.30;26.86;100079.59;5130736;27;20193;-67
2022/07/19 08:41:02;;;;;;;1.65;0.93;;;;;;;33.26;26.74;100079.13;5121845;27;20209;-67
2022/07/19 08:43:29;;;;;;;1.05;1.05;;;;;;;33.24;28.06;100068.69;5131356;27;20241;-68
2022/07/19 08:45:59;;;;;;;0.80;0.80;;;;;;;32.43;28.76;100062.00;5130972;27;20198;-65
2022/07/19 08:48:30;;;;;;;0.70;0.70;;;;;;;32.62;28.88;100059.81;5131581;27;20202;-66
2022/07/19 08:50:58;;;;;;;1.10;1.10;;;;;;;32.85;29.77;100049.28;5132538;27;20641;-65
2022/07/19 08:53:24;;;;;;;0.98;0.98;;;;;;;33.06;28.40;100056.63;5114944;27;20206;-65
2022/07/19 08:55:52;;;;;;;1.38;1.10;;;;;;;33.00;28.97;100059.97;5121716;27;20578;-65
2022/07/19 08:58:18;;;;;;;2.80;0.90;;;;;;;32.61;28.69;100062.63;5118291;27;20207;-66
2022/07/19 09:00:45;;;;;;;0.88;0.88;;;;;;;32.59;28.75;100054.03;5126338;27;20205;-65
2022/07/19 09:03:12;;;;;;;0.88;0.70;;;;;;;32.23;28.45;100051.78;5121512;27;20270;-66
2022/07/19 09:05:40;;;;;;;0.90;0.90;;;;;;;32.55;29.13;100050.00;5116971;27;20734;-66
2022/07/19 09:08:11;;;;;;;1.17;0.98;;;;;;;32.78;28.30;100053.63;5122381;27;20581;-66
2022/07/19 09:10:39;;;;;;;1.50;0.80;;;;;;;33.19;29.80;100052.41;5132149;27;20220;-66
2022/07/19 09:13:09;;;;;;;0.70;0.70;;;;;;;33.57;28.92;100049.84;5120215;27;20226;-66
2022/07/19 09:15:45;;;;;;;0.82;0.82;;;;;;;33.41;27.76;100044.66;5133691;27;20202;-66
2022/07/19 09:18:15;;;;;;;1.27;0.70;;;;;;;33.09;28.01;100037.69;5128628;27;20206;-66
2022/07/19 09:20:45;;;;;;;0.80;0.80;;;;;;;33.43;29.33;100042.63;5130665;27;20198;-67
2022/07/19 09:23:13;;;;;;;0.90;0.90;;;;;;;33.10;28.27;100042.84;5120558;27;20204;-66
2022/07/19 09:25:41;;;;;;;0.80;0.80;;;;;;;32.62;27.11;100030.63;5130602;27;21315;-66
2022/07/19 09:28:09;;;;;;;0.70;0.70;;;;;;;32.86;27.83;100034.97;5122528;27;20570;-66
2022/07/19 09:30:38;;;;;;;1.23;0.93;;;;;;;33.00;28.62;100028.91;5116635;27;20198;-66
2022/07/19 09:33:10;;;;;;;0.93;0.93;;;;;;;32.81;28.50;100026.69;5115246;27;20215;-66
2022/07/19 09:35:40;;;;;;;1.92;0.90;;;;;;;33.00;29.00;100036.91;5127049;27;20264;-65
2022/07/19 09:38:36;;;;;;;0.85;0.85;;;;;;;32.40;28.31;100033.16;5114198;27;20202;-65
2022/07/19 09:41:10;;;;;;;1.25;1.23;;;;;;;32.24;30.18;100026.06;5089476;27;20285;-65
2022/07/19 09:43:59;;;;;;;1.00;1.00;;;;;;;32.31;29.57;100028.88;5127310;27;20689;-66
2022/07/19 09:46:31;;;;;;;0.60;0.60;;;;;;;32.51;30.25;100007.03;5127158;27;20210;-66
2022/07/19 09:49:04;;;;;;;4.05;0.82;;;;;;;32.43;29.76;100022.19;5127105;27;20198;-66
2022/07/19 09:51:33;;;;;;;1.95;0.80;;;;;;;32.61;31.44;100014.84;5130280;27;20281;-66
2022/07/19 09:54:03;;;;;;;1.08;0.98;;;;;;;32.68;31.93;100021.13;5131078;27;20201;-66
2022/07/19 09:56:31;;;;;;;1.02;1.00;;;;;;;33.01;30.21;100017.31;5118406;27;20242;-66
2022/07/19 09:58:59;;;;;;;1.52;1.00;;;;;;;33.23;29.93;100021.00;5130647;27;20201;-67
2022/07/19 10:01:27;;;;;;;1.42;0.90;;;;;;;33.34;32.54;100017.13;5127511;27;20210;-66
2022/07/19 10:03:57;;;;;;;1.23;1.13;;;;;;;32.90;27.55;100020.34;5131346;27;20202;-67
2022/07/19 10:06:26;;;;;;;0.80;0.80;;;;;;;32.46;28.16;100011.22;5118477;27;20198;-66
2022/07/19 10:08:53;;;;;;;1.25;1.00;;;;;;;32.69;28.64;100012.16;5125683;27;20202;-66
2022/07/19 10:11:22;;;;;;;0.95;0.90;;;;;;;32.77;30.87;100014.75;5123655;27;20202;-66
2022/07/19 10:13:51;;;;;;;0.80;0.80;;;;;;;32.88;30.90;100003.75;5124585;27;20206;-66
2022/07/19 10:16:23;;;;;;;0.80;0.80;;;;;;;33.13;29.36;100002.63;5132480;27;20254;-66
2022/07/19 10:19:08;;;;;;;1.08;1.08;;;;;;;33.13;29.14;100005.28;5123171;27;20197;-66
2022/07/19 10:21:37;;;;;;;0.90;0.80;;;;;;;33.39;28.40;99998.78;5127538;27;20206;-65
2022/07/19 10:24:04;;;;;;;3.30;1.00;;;;;;;33.52;27.91;100004.34;5127167;27;20662;-67
2022/07/19 10:26:36;;;;;;;0.80;0.80;;;;;;;33.31;26.81;99996.22;5126314;27;20594;-66
2022/07/19 10:29:10;;;;;;;0.80;0.80;;;;;;;33.41;28.54;99991.50;5127315;27;20221;-66
2022/07/19 10:31:38;;;;;;;1.60;0.90;;;;;;;33.36;30.29;99988.53;5128318;27;20228;-66
2022/07/19 10:34:07;;;;;;;1.23;1.13;;;;;;;33.28;29.48;99985.94;5124308;27;20666;-66
2022/07/19 10:36:37;;;;;;;1.27;1.13;;;;;;;33.30;29.30;99979.44;5114758;27;20248;-66
2022/07/19 10:39:33;;;;;;;2.38;1.02;;;;;;;33.07;29.59;99979.41;5124708;27;20635;-67
2022/07/19 10:42:16;;;;;;;0.88;0.88;;;;;;;33.19;28.34;99974.53;5123919;27;20210;-68
2022/07/19 10:45:14;;;;;;;1.02;1.02;;;;;;;32.49;28.34;99968.41;5113322;27;20224;-68
2022/07/19 10:48:06;;;;;;;0.80;0.80;;;;;;;32.15;29.97;99950.16;5122333;27;20206;-68
2022/07/19 10:50:58;;;;;;;1.00;1.00;;;;;;;32.07;30.03;99966.91;5112289;27;20199;-68
2022/07/19 10:53:59;;;;;;;1.20;1.20;;;;;;;32.30;31.58;99963.50;5096995;27;20319;-68
2022/07/19 10:56:57;;;;;;;0.90;0.90;;;;;;;32.18;29.44;99955.91;5123599;27;20292;-67
2022/07/19 10:59:40;;;;;;;0.98;0.98;;;;;;;31.92;33.05;99955.31;5123713;27;20646;-67
2022/07/19 11:02:07;;;;;;;1.17;1.08;;;;;;;32.13;31.77;99952.94;5113739;27;20198;-68
2022/07/19 11:04:35;;;;;;;1.83;1.00;;;;;;;32.36;31.29;99952.19;5116774;27;20205;-68
2022/07/19 11:07:17;;;;;;;2.20;0.80;;;;;;;32.54;31.39;99956.25;5122060;27;20210;-68
2022/07/19 11:09:47;;;;;;;0.90;0.90;;;;;;;32.61;30.74;99961.72;5122099;27;20204;-66
2022/07/19 11:12:25;;;;;;;3.88;0.98;;;;;;;32.70;30.26;99955.38;5115411;27;20238;-68
2022/07/19 11:14:54;;;;;;;0.90;0.90;;;;;;;32.81;30.56;99947.03;5114261;27;20289;-67
2022/07/19 11:17:20;;;;;;;0.98;0.98;;;;;;;32.65;30.26;99942.63;5114998;27;20202;-67
2022/07/19 11:20:17;;;;;;;1.67;0.75;;;;;;;32.44;29.34;99933.59;5112590;27;20198;-67
2022/07/19 11:22:47;;;;;;;1.30;1.20;;;;;;;32.32;29.50;99934.97;5094422;27;20202;-67
2022/07/19 11:25:15;;;;;;;1.30;1.30;;;;;;;32.55;30.28;99938.50;5120093;27;20195;-67
2022/07/19 11:27:44;;;;;;;1.05;1.05;;;;;;;32.59;28.69;99929.22;5127533;27;20568;-66
2022/07/19 11:30:14;;;;;;;1.00;1.00;;;;;;;32.40;31.24;99932.28;5131742;27;20254;-67
2022/07/19 11:32:41;;;;;;;3.17;0.98;;;;;;;32.54;29.50;99923.56;5131172;27;20225;-68